LEPP/PNA METAR and TAF weather

Enter ICAO airport designator
Station Type Date Time Source
LEPP METAR 2019/02/21 11:30 UTC NOAA

LEPP 211130Z 03001KT 8000 NSC 11/05 Q1029


Station Type Date Time Source
LEPP Decoded METAR 2019/02/21 11:30 UTC NOAA

Pamplona / Noain, Spain (LEPP) 42-46N 001-38W 453M
Feb 21, 2019 - 06:30 AM EST / 2019.02.21 1130 UTC
Wind: from the NNE (030 degrees) at 1 MPH (1 KT):0
Visibility: 4 mile(s):0
Temperature: 51 F (11 C)
Dew Point: 41 F (5 C)
Relative Humidity: 66%
Pressure (altimeter): 30.39 in. Hg (1029 hPa)
ob: LEPP 211130Z 03001KT 8000 NSC 11/05 Q1029
cycle: 11

Station Type Date Time Source
LEPP TAF 2019/02/21 09:29 UTC NOAA

TAF LEPP 210800Z 2109/2209 VRB04KT 8000 NSC TX17/2115Z TN00/2206Z PROB40
TEMPO 2112/2118 15010KT PROB30
TEMPO 2203/2208 3000 BR


Example: see airport list